sensor_id;sensor_type;location;lat;lon;timestamp;P1;durP1;ratioP1;P2;durP2;ratioP2
40373;SDS011;26079;45.958;12.492;2022-12-24T00:02:00;65.25;;;46.25;;
40373;SDS011;26079;45.958;12.492;2022-12-24T00:04:26;59.05;;;44.25;;
40373;SDS011;26079;45.958;12.492;2022-12-24T00:06:52;57.75;;;42.20;;
40373;SDS011;26079;45.958;12.492;2022-12-24T00:09:17;76.47;;;53.30;;
40373;SDS011;26079;45.958;12.492;2022-12-24T00:11:43;142.68;;;99.07;;
40373;SDS011;26079;45.958;12.492;2022-12-24T00:14:08;76.60;;;58.60;;
40373;SDS011;26079;45.958;12.492;2022-12-24T00:16:34;76.38;;;47.45;;
40373;SDS011;26079;45.958;12.492;2022-12-24T00:19:00;62.70;;;45.13;;
40373;SDS011;26079;45.958;12.492;2022-12-24T00:21:25;53.60;;;42.70;;
40373;SDS011;26079;45.958;12.492;2022-12-24T00:23:51;57.92;;;42.60;;
40373;SDS011;26079;45.958;12.492;2022-12-24T00:26:17;60.83;;;43.58;;
40373;SDS011;26079;45.958;12.492;2022-12-24T00:28:43;54.92;;;40.08;;
40373;SDS011;26079;45.958;12.492;2022-12-24T00:31:09;52.67;;;39.20;;
40373;SDS011;26079;45.958;12.492;2022-12-24T00:33:37;55.28;;;40.25;;
40373;SDS011;26079;45.958;12.492;2022-12-24T00:36:03;55.78;;;39.25;;
40373;SDS011;26079;45.958;12.492;2022-12-24T00:38:29;66.80;;;42.25;;
40373;SDS011;26079;45.958;12.492;2022-12-24T00:40:58;62.35;;;45.90;;
40373;SDS011;26079;45.958;12.492;2022-12-24T00:43:25;64.97;;;45.80;;
40373;SDS011;26079;45.958;12.492;2022-12-24T00:45:51;57.25;;;41.05;;
40373;SDS011;26079;45.958;12.492;2022-12-24T00:48:17;59.92;;;44.80;;
40373;SDS011;26079;45.958;12.492;2022-12-24T00:50:43;57.45;;;40.58;;
40373;SDS011;26079;45.958;12.492;2022-12-24T00:53:08;61.75;;;39.38;;
40373;SDS011;26079;45.958;12.492;2022-12-24T00:55:34;56.00;;;41.03;;
40373;SDS011;26079;45.958;12.492;2022-12-24T00:58:00;49.30;;;38.70;;
40373;SDS011;26079;45.958;12.492;2022-12-24T01:00:25;57.42;;;42.05;;
40373;SDS011;26079;45.958;12.492;2022-12-24T01:02:51;52.38;;;38.53;;
40373;SDS011;26079;45.958;12.492;2022-12-24T01:05:16;60.45;;;42.83;;
40373;SDS011;26079;45.958;12.492;2022-12-24T01:07:45;53.17;;;39.80;;
40373;SDS011;26079;45.958;12.492;2022-12-24T01:10:11;58.55;;;41.15;;
40373;SDS011;26079;45.958;12.492;2022-12-24T01:12:38;52.83;;;37.80;;
40373;SDS011;26079;45.958;12.492;2022-12-24T01:15:05;52.10;;;39.78;;
40373;SDS011;26079;45.958;12.492;2022-12-24T01:17:32;63.67;;;43.70;;
40373;SDS011;26079;45.958;12.492;2022-12-24T01:19:58;61.78;;;42.28;;
40373;SDS011;26079;45.958;12.492;2022-12-24T01:22:24;54.58;;;40.63;;
40373;SDS011;26079;45.958;12.492;2022-12-24T01:24:50;54.38;;;41.42;;
40373;SDS011;26079;45.958;12.492;2022-12-24T01:27:15;52.03;;;37.55;;
40373;SDS011;26079;45.958;12.492;2022-12-24T01:29:41;56.78;;;41.92;;
40373;SDS011;26079;45.958;12.492;2022-12-24T01:32:07;58.65;;;42.17;;
40373;SDS011;26079;45.958;12.492;2022-12-24T01:34:33;56.35;;;40.33;;
40373;SDS011;26079;45.958;12.492;2022-12-24T01:36:58;55.58;;;39.70;;
40373;SDS011;26079;45.958;12.492;2022-12-24T01:39:24;49.85;;;39.75;;
40373;SDS011;26079;45.958;12.492;2022-12-24T01:41:50;51.58;;;39.08;;
40373;SDS011;26079;45.958;12.492;2022-12-24T01:44:34;51.72;;;39.20;;
40373;SDS011;26079;45.958;12.492;2022-12-24T01:47:12;54.85;;;40.65;;
40373;SDS011;26079;45.958;12.492;2022-12-24T01:49:43;54.97;;;40.10;;
40373;SDS011;26079;45.958;12.492;2022-12-24T01:52:13;54.35;;;37.85;;
40373;SDS011;26079;45.958;12.492;2022-12-24T01:54:48;45.38;;;36.70;;
40373;SDS011;26079;45.958;12.492;2022-12-24T01:57:21;57.78;;;40.92;;
40373;SDS011;26079;45.958;12.492;2022-12-24T01:59:54;48.97;;;37.72;;
40373;SDS011;26079;45.958;12.492;2022-12-24T02:02:24;47.05;;;36.10;;
40373;SDS011;26079;45.958;12.492;2022-12-24T02:07:23;46.97;;;36.33;;
40373;SDS011;26079;45.958;12.492;2022-12-24T02:09:50;44.65;;;35.22;;
40373;SDS011;26079;45.958;12.492;2022-12-24T02:12:20;51.13;;;35.60;;
40373;SDS011;26079;45.958;12.492;2022-12-24T02:14:45;46.75;;;36.03;;
40373;SDS011;26079;45.958;12.492;2022-12-24T02:31:03;65.65;;;40.95;;
40373;SDS011;26079;45.958;12.492;2022-12-24T02:33:57;49.67;;;38.42;;
40373;SDS011;26079;45.958;12.492;2022-12-24T02:36:46;53.17;;;40.70;;
40373;SDS011;26079;45.958;12.492;2022-12-24T02:39:26;56.58;;;41.00;;
40373;SDS011;26079;45.958;12.492;2022-12-24T02:41:59;59.90;;;43.00;;
40373;SDS011;26079;45.958;12.492;2022-12-24T02:44:30;64.65;;;42.65;;
40373;SDS011;26079;45.958;12.492;2022-12-24T02:46:59;47.60;;;37.10;;
40373;SDS011;26079;45.958;12.492;2022-12-24T02:49:27;51.70;;;37.95;;
40373;SDS011;26079;45.958;12.492;2022-12-24T02:51:52;48.10;;;37.00;;
40373;SDS011;26079;45.958;12.492;2022-12-24T02:54:18;48.67;;;36.42;;
40373;SDS011;26079;45.958;12.492;2022-12-24T03:07:36;46.72;;;34.17;;
40373;SDS011;26079;45.958;12.492;2022-12-24T03:12:49;42.35;;;33.78;;
40373;SDS011;26079;45.958;12.492;2022-12-24T03:15:22;43.72;;;33.90;;
40373;SDS011;26079;45.958;12.492;2022-12-24T03:17:51;45.85;;;35.08;;
40373;SDS011;26079;45.958;12.492;2022-12-24T03:20:21;42.88;;;33.47;;
40373;SDS011;26079;45.958;12.492;2022-12-24T03:22:55;55.50;;;38.13;;
40373;SDS011;26079;45.958;12.492;2022-12-24T03:25:21;45.33;;;35.53;;
40373;SDS011;26079;45.958;12.492;2022-12-24T03:27:49;53.33;;;38.33;;
40373;SDS011;26079;45.958;12.492;2022-12-24T03:30:16;48.00;;;37.30;;
40373;SDS011;26079;45.958;12.492;2022-12-24T03:32:42;46.42;;;37.53;;
40373;SDS011;26079;45.958;12.492;2022-12-24T03:35:10;45.42;;;35.25;;
40373;SDS011;26079;45.958;12.492;2022-12-24T03:37:36;49.92;;;36.85;;
40373;SDS011;26079;45.958;12.492;2022-12-24T03:40:03;56.42;;;37.22;;
40373;SDS011;26079;45.958;12.492;2022-12-24T03:42:29;55.83;;;39.05;;
40373;SDS011;26079;45.958;12.492;2022-12-24T03:44:55;56.25;;;40.75;;
40373;SDS011;26079;45.958;12.492;2022-12-24T03:47:21;53.30;;;40.25;;
40373;SDS011;26079;45.958;12.492;2022-12-24T03:49:47;58.05;;;39.53;;
40373;SDS011;26079;45.958;12.492;2022-12-24T03:52:12;53.28;;;40.83;;
40373;SDS011;26079;45.958;12.492;2022-12-24T03:54:38;56.08;;;41.60;;
40373;SDS011;26079;45.958;12.492;2022-12-24T03:57:04;51.72;;;38.88;;
40373;SDS011;26079;45.958;12.492;2022-12-24T03:59:29;50.13;;;38.53;;
40373;SDS011;26079;45.958;12.492;2022-12-24T04:01:55;52.97;;;38.42;;
40373;SDS011;26079;45.958;12.492;2022-12-24T04:04:20;58.78;;;40.17;;
40373;SDS011;26079;45.958;12.492;2022-12-24T04:06:46;52.03;;;38.13;;
40373;SDS011;26079;45.958;12.492;2022-12-24T04:09:12;51.03;;;38.17;;
40373;SDS011;26079;45.958;12.492;2022-12-24T04:11:37;54.33;;;39.08;;
40373;SDS011;26079;45.958;12.492;2022-12-24T04:14:03;54.35;;;37.95;;
40373;SDS011;26079;45.958;12.492;2022-12-24T04:16:29;50.53;;;37.83;;
40373;SDS011;26079;45.958;12.492;2022-12-24T04:18:54;51.30;;;37.88;;
40373;SDS011;26079;45.958;12.492;2022-12-24T04:21:20;50.30;;;38.13;;
40373;SDS011;26079;45.958;12.492;2022-12-24T04:23:46;52.22;;;38.65;;
40373;SDS011;26079;45.958;12.492;2022-12-24T04:26:12;48.85;;;36.65;;
40373;SDS011;26079;45.958;12.492;2022-12-24T04:28:39;51.88;;;38.72;;
40373;SDS011;26079;45.958;12.492;2022-12-24T04:31:07;52.20;;;36.55;;
40373;SDS011;26079;45.958;12.492;2022-12-24T04:33:34;49.17;;;36.20;;
40373;SDS011;26079;45.958;12.492;2022-12-24T04:36:01;50.53;;;38.45;;
40373;SDS011;26079;45.958;12.492;2022-12-24T04:38:29;59.75;;;38.45;;
40373;SDS011;26079;45.958;12.492;2022-12-24T04:41:02;48.13;;;37.85;;
40373;SDS011;26079;45.958;12.492;2022-12-24T04:43:31;46.85;;;37.13;;
40373;SDS011;26079;45.958;12.492;2022-12-24T04:46:04;49.05;;;36.95;;
40373;SDS011;26079;45.958;12.492;2022-12-24T04:48:31;46.88;;;35.83;;
40373;SDS011;26079;45.958;12.492;2022-12-24T04:50:57;46.72;;;35.35;;
40373;SDS011;26079;45.958;12.492;2022-12-24T04:53:28;42.58;;;33.80;;
40373;SDS011;26079;45.958;12.492;2022-12-24T04:55:54;53.85;;;37.22;;
40373;SDS011;26079;45.958;12.492;2022-12-24T04:58:20;51.00;;;37.83;;
40373;SDS011;26079;45.958;12.492;2022-12-24T05:00:46;50.15;;;35.75;;
40373;SDS011;26079;45.958;12.492;2022-12-24T05:03:11;71.97;;;46.38;;
40373;SDS011;26079;45.958;12.492;2022-12-24T05:05:37;71.22;;;49.50;;
40373;SDS011;26079;45.958;12.492;2022-12-24T05:08:02;68.55;;;43.95;;
40373;SDS011;26079;45.958;12.492;2022-12-24T05:10:28;61.22;;;43.75;;
40373;SDS011;26079;45.958;12.492;2022-12-24T05:12:54;58.45;;;41.78;;
40373;SDS011;26079;45.958;12.492;2022-12-24T05:15:20;58.67;;;42.42;;
40373;SDS011;26079;45.958;12.492;2022-12-24T05:17:45;76.25;;;51.30;;
40373;SDS011;26079;45.958;12.492;2022-12-24T05:20:11;72.57;;;49.78;;
40373;SDS011;26079;45.958;12.492;2022-12-24T05:22:37;67.47;;;43.38;;
40373;SDS011;26079;45.958;12.492;2022-12-24T05:25:21;61.95;;;41.95;;
40373;SDS011;26079;45.958;12.492;2022-12-24T05:28:05;58.17;;;40.95;;
40373;SDS011;26079;45.958;12.492;2022-12-24T05:30:31;52.67;;;38.13;;
40373;SDS011;26079;45.958;12.492;2022-12-24T05:32:56;50.88;;;35.75;;
40373;SDS011;26079;45.958;12.492;2022-12-24T05:35:22;48.25;;;35.83;;
40373;SDS011;26079;45.958;12.492;2022-12-24T05:37:47;57.78;;;37.45;;
40373;SDS011;26079;45.958;12.492;2022-12-24T05:40:13;44.75;;;36.13;;
40373;SDS011;26079;45.958;12.492;2022-12-24T05:42:39;48.97;;;35.25;;
40373;SDS011;26079;45.958;12.492;2022-12-24T05:45:05;51.83;;;37.03;;
40373;SDS011;26079;45.958;12.492;2022-12-24T05:47:31;45.42;;;36.05;;
40373;SDS011;26079;45.958;12.492;2022-12-24T05:49:57;48.63;;;35.95;;
40373;SDS011;26079;45.958;12.492;2022-12-24T05:52:22;50.72;;;37.13;;
40373;SDS011;26079;45.958;12.492;2022-12-24T05:54:48;51.90;;;37.30;;
40373;SDS011;26079;45.958;12.492;2022-12-24T05:57:14;55.30;;;39.20;;
40373;SDS011;26079;45.958;12.492;2022-12-24T05:59:40;49.20;;;38.00;;
40373;SDS011;26079;45.958;12.492;2022-12-24T06:02:06;48.88;;;35.28;;
40373;SDS011;26079;45.958;12.492;2022-12-24T06:04:32;47.75;;;36.05;;
40373;SDS011;26079;45.958;12.492;2022-12-24T06:06:57;46.70;;;34.70;;
40373;SDS011;26079;45.958;12.492;2022-12-24T06:09:23;50.25;;;36.22;;
40373;SDS011;26079;45.958;12.492;2022-12-24T06:11:49;46.63;;;35.33;;
40373;SDS011;26079;45.958;12.492;2022-12-24T06:14:14;43.53;;;35.05;;
40373;SDS011;26079;45.958;12.492;2022-12-24T06:16:40;49.25;;;36.45;;
40373;SDS011;26079;45.958;12.492;2022-12-24T06:19:05;49.72;;;36.08;;
40373;SDS011;26079;45.958;12.492;2022-12-24T06:21:31;43.92;;;34.90;;
40373;SDS011;26079;45.958;12.492;2022-12-24T06:23:57;50.45;;;34.97;;
40373;SDS011;26079;45.958;12.492;2022-12-24T06:26:22;44.50;;;35.50;;
40373;SDS011;26079;45.958;12.492;2022-12-24T06:28:49;50.47;;;34.25;;
40373;SDS011;26079;45.958;12.492;2022-12-24T06:31:16;46.85;;;35.75;;
40373;SDS011;26079;45.958;12.492;2022-12-24T06:33:44;43.20;;;32.70;;
40373;SDS011;26079;45.958;12.492;2022-12-24T06:36:14;44.28;;;30.38;;
40373;SDS011;26079;45.958;12.492;2022-12-24T06:38:41;36.38;;;29.50;;
40373;SDS011;26079;45.958;12.492;2022-12-24T06:41:07;41.50;;;28.65;;
40373;SDS011;26079;45.958;12.492;2022-12-24T06:43:33;35.80;;;28.10;;
40373;SDS011;26079;45.958;12.492;2022-12-24T06:45:59;43.17;;;31.70;;
40373;SDS011;26079;45.958;12.492;2022-12-24T06:48:26;39.45;;;29.90;;
40373;SDS011;26079;45.958;12.492;2022-12-24T06:50:52;36.95;;;30.30;;
40373;SDS011;26079;45.958;12.492;2022-12-24T06:53:18;39.63;;;29.92;;
40373;SDS011;26079;45.958;12.492;2022-12-24T06:55:44;42.25;;;32.45;;
40373;SDS011;26079;45.958;12.492;2022-12-24T06:58:09;40.90;;;30.00;;
40373;SDS011;26079;45.958;12.492;2022-12-24T07:00:36;44.85;;;31.70;;
40373;SDS011;26079;45.958;12.492;2022-12-24T07:03:02;40.38;;;31.50;;
40373;SDS011;26079;45.958;12.492;2022-12-24T07:05:28;44.00;;;30.38;;
40373;SDS011;26079;45.958;12.492;2022-12-24T07:07:54;56.05;;;40.97;;
40373;SDS011;26079;45.958;12.492;2022-12-24T07:10:20;65.85;;;44.97;;
40373;SDS011;26079;45.958;12.492;2022-12-24T07:12:46;102.35;;;71.53;;
40373;SDS011;26079;45.958;12.492;2022-12-24T07:15:12;81.05;;;53.50;;
40373;SDS011;26079;45.958;12.492;2022-12-24T07:17:39;41.03;;;30.77;;
40373;SDS011;26079;45.958;12.492;2022-12-24T07:20:05;39.08;;;30.00;;
40373;SDS011;26079;45.958;12.492;2022-12-24T07:22:32;42.30;;;31.83;;
40373;SDS011;26079;45.958;12.492;2022-12-24T07:24:58;50.25;;;33.50;;
40373;SDS011;26079;45.958;12.492;2022-12-24T07:27:23;43.03;;;32.53;;
40373;SDS011;26079;45.958;12.492;2022-12-24T07:29:49;32.78;;;24.80;;
40373;SDS011;26079;45.958;12.492;2022-12-24T07:32:15;38.05;;;24.88;;
40373;SDS011;26079;45.958;12.492;2022-12-24T07:34:40;29.65;;;23.77;;
40373;SDS011;26079;45.958;12.492;2022-12-24T07:37:06;38.80;;;30.00;;
40373;SDS011;26079;45.958;12.492;2022-12-24T07:39:32;56.67;;;40.20;;
40373;SDS011;26079;45.958;12.492;2022-12-24T07:41:58;51.50;;;35.83;;
40373;SDS011;26079;45.958;12.492;2022-12-24T07:44:23;42.28;;;35.50;;
40373;SDS011;26079;45.958;12.492;2022-12-24T07:46:49;46.53;;;34.60;;
40373;SDS011;26079;45.958;12.492;2022-12-24T07:49:15;49.78;;;36.95;;
40373;SDS011;26079;45.958;12.492;2022-12-24T07:51:41;41.00;;;34.30;;
40373;SDS011;26079;45.958;12.492;2022-12-24T07:54:06;52.85;;;38.70;;
40373;SDS011;26079;45.958;12.492;2022-12-24T07:56:32;77.38;;;60.33;;
40373;SDS011;26079;45.958;12.492;2022-12-24T07:58:58;59.47;;;46.70;;
40373;SDS011;26079;45.958;12.492;2022-12-24T08:01:24;46.08;;;37.50;;
40373;SDS011;26079;45.958;12.492;2022-12-24T08:03:49;50.05;;;37.30;;
40373;SDS011;26079;45.958;12.492;2022-12-24T08:06:18;50.58;;;40.58;;
40373;SDS011;26079;45.958;12.492;2022-12-24T08:08:44;64.95;;;47.08;;
40373;SDS011;26079;45.958;12.492;2022-12-24T08:11:10;65.35;;;46.10;;
40373;SDS011;26079;45.958;12.492;2022-12-24T08:13:36;57.28;;;42.28;;
40373;SDS011;26079;45.958;12.492;2022-12-24T08:16:02;49.15;;;38.67;;
40373;SDS011;26079;45.958;12.492;2022-12-24T08:18:28;53.40;;;42.13;;
40373;SDS011;26079;45.958;12.492;2022-12-24T08:20:54;61.60;;;47.47;;
40373;SDS011;26079;45.958;12.492;2022-12-24T08:23:19;56.72;;;43.63;;
40373;SDS011;26079;45.958;12.492;2022-12-24T08:25:46;50.45;;;36.03;;
40373;SDS011;26079;45.958;12.492;2022-12-24T08:28:13;50.17;;;35.97;;
40373;SDS011;26079;45.958;12.492;2022-12-24T08:30:40;51.65;;;35.83;;
40373;SDS011;26079;45.958;12.492;2022-12-24T08:33:06;41.80;;;34.10;;
40373;SDS011;26079;45.958;12.492;2022-12-24T08:35:32;43.15;;;33.97;;
40373;SDS011;26079;45.958;12.492;2022-12-24T08:37:58;47.85;;;34.55;;
40373;SDS011;26079;45.958;12.492;2022-12-24T08:40:24;46.42;;;36.42;;
40373;SDS011;26079;45.958;12.492;2022-12-24T08:42:50;49.30;;;36.70;;
40373;SDS011;26079;45.958;12.492;2022-12-24T08:45:15;48.08;;;36.30;;
40373;SDS011;26079;45.958;12.492;2022-12-24T08:47:41;48.90;;;35.50;;
40373;SDS011;26079;45.958;12.492;2022-12-24T08:50:07;44.00;;;35.63;;
40373;SDS011;26079;45.958;12.492;2022-12-24T08:52:33;49.95;;;37.80;;
40373;SDS011;26079;45.958;12.492;2022-12-24T08:54:59;44.53;;;33.13;;
40373;SDS011;26079;45.958;12.492;2022-12-24T08:57:25;48.05;;;35.70;;
40373;SDS011;26079;45.958;12.492;2022-12-24T08:59:51;44.28;;;34.30;;
40373;SDS011;26079;45.958;12.492;2022-12-24T09:02:17;47.30;;;32.70;;
40373;SDS011;26079;45.958;12.492;2022-12-24T09:04:43;51.40;;;36.20;;
40373;SDS011;26079;45.958;12.492;2022-12-24T09:07:09;48.85;;;37.28;;
40373;SDS011;26079;45.958;12.492;2022-12-24T09:09:35;62.97;;;40.55;;
40373;SDS011;26079;45.958;12.492;2022-12-24T09:12:02;57.40;;;40.97;;
40373;SDS011;26079;45.958;12.492;2022-12-24T09:14:29;67.30;;;47.33;;
40373;SDS011;26079;45.958;12.492;2022-12-24T09:16:55;59.78;;;42.03;;
40373;SDS011;26079;45.958;12.492;2022-12-24T09:19:21;55.85;;;39.95;;
40373;SDS011;26079;45.958;12.492;2022-12-24T09:21:46;53.00;;;37.55;;
40373;SDS011;26079;45.958;12.492;2022-12-24T09:24:12;61.85;;;43.08;;
40373;SDS011;26079;45.958;12.492;2022-12-24T09:26:38;49.10;;;39.55;;
40373;SDS011;26079;45.958;12.492;2022-12-24T09:29:05;45.33;;;36.33;;
40373;SDS011;26079;45.958;12.492;2022-12-24T09:31:31;44.70;;;35.65;;
40373;SDS011;26079;45.958;12.492;2022-12-24T09:33:57;49.85;;;37.25;;
40373;SDS011;26079;45.958;12.492;2022-12-24T09:36:23;52.70;;;36.17;;
40373;SDS011;26079;45.958;12.492;2022-12-24T09:38:49;50.17;;;37.03;;
40373;SDS011;26079;45.958;12.492;2022-12-24T09:43:48;64.65;;;48.13;;
40373;SDS011;26079;45.958;12.492;2022-12-24T09:46:27;45.80;;;36.08;;
40373;SDS011;26079;45.958;12.492;2022-12-24T09:49:02;51.15;;;36.88;;
40373;SDS011;26079;45.958;12.492;2022-12-24T09:54:24;49.67;;;37.08;;
40373;SDS011;26079;45.958;12.492;2022-12-24T09:57:34;55.22;;;37.53;;
40373;SDS011;26079;45.958;12.492;2022-12-24T10:00:02;47.72;;;36.65;;
40373;SDS011;26079;45.958;12.492;2022-12-24T10:02:29;48.53;;;35.17;;
40373;SDS011;26079;45.958;12.492;2022-12-24T10:04:56;46.22;;;33.45;;
40373;SDS011;26079;45.958;12.492;2022-12-24T10:18:17;54.25;;;38.75;;
40373;SDS011;26079;45.958;12.492;2022-12-24T10:23:38;50.10;;;39.10;;
40373;SDS011;26079;45.958;12.492;2022-12-24T10:26:17;53.97;;;39.65;;
40373;SDS011;26079;45.958;12.492;2022-12-24T10:28:53;48.00;;;38.57;;
40373;SDS011;26079;45.958;12.492;2022-12-24T10:31:31;52.72;;;37.80;;
40373;SDS011;26079;45.958;12.492;2022-12-24T10:34:09;56.78;;;40.67;;
40373;SDS011;26079;45.958;12.492;2022-12-24T10:39:12;60.33;;;38.25;;
40373;SDS011;26079;45.958;12.492;2022-12-24T10:41:42;52.63;;;38.83;;
40373;SDS011;26079;45.958;12.492;2022-12-24T10:44:11;55.15;;;38.65;;
40373;SDS011;26079;45.958;12.492;2022-12-24T10:46:41;55.30;;;39.90;;
40373;SDS011;26079;45.958;12.492;2022-12-24T10:49:17;53.80;;;37.72;;
40373;SDS011;26079;45.958;12.492;2022-12-24T10:51:51;46.33;;;35.10;;
40373;SDS011;26079;45.958;12.492;2022-12-24T10:54:24;43.20;;;33.20;;
40373;SDS011;26079;45.958;12.492;2022-12-24T10:56:56;48.63;;;34.90;;
40373;SDS011;26079;45.958;12.492;2022-12-24T10:59:35;42.65;;;33.70;;
40373;SDS011;26079;45.958;12.492;2022-12-24T11:05:28;48.40;;;32.60;;
40373;SDS011;26079;45.958;12.492;2022-12-24T11:08:02;40.35;;;30.92;;
40373;SDS011;26079;45.958;12.492;2022-12-24T11:10:39;40.08;;;32.03;;
40373;SDS011;26079;45.958;12.492;2022-12-24T11:14:10;31.00;;;25.05;;
40373;SDS011;26079;45.958;12.492;2022-12-24T11:16:20;35.80;;;25.15;;
40373;SDS011;26079;45.958;12.492;2022-12-24T11:18:58;35.30;;;25.52;;
40373;SDS011;26079;45.958;12.492;2022-12-24T11:23:55;28.75;;;24.92;;
40373;SDS011;26079;45.958;12.492;2022-12-24T11:26:31;25.70;;;22.50;;
40373;SDS011;26079;45.958;12.492;2022-12-24T11:32:09;27.13;;;18.27;;
40373;SDS011;26079;45.958;12.492;2022-12-24T11:34:42;32.90;;;18.98;;
40373;SDS011;26079;45.958;12.492;2022-12-24T11:39:48;20.60;;;16.35;;
40373;SDS011;26079;45.958;12.492;2022-12-24T11:42:32;20.17;;;15.57;;
40373;SDS011;26079;45.958;12.492;2022-12-24T11:47:36;17.42;;;14.90;;
40373;SDS011;26079;45.958;12.492;2022-12-24T11:52:51;14.32;;;12.80;;
40373;SDS011;26079;45.958;12.492;2022-12-24T11:58:00;17.17;;;14.52;;
40373;SDS011;26079;45.958;12.492;2022-12-24T12:00:39;15.95;;;13.05;;
40373;SDS011;26079;45.958;12.492;2022-12-24T12:03:07;13.35;;;11.00;;
40373;SDS011;26079;45.958;12.492;2022-12-24T12:06:02;14.50;;;10.07;;
40373;SDS011;26079;45.958;12.492;2022-12-24T12:08:31;15.93;;;11.55;;
40373;SDS011;26079;45.958;12.492;2022-12-24T12:10:59;12.63;;;10.43;;
40373;SDS011;26079;45.958;12.492;2022-12-24T12:13:29;13.80;;;10.63;;
40373;SDS011;26079;45.958;12.492;2022-12-24T12:18:59;12.93;;;11.35;;
40373;SDS011;26079;45.958;12.492;2022-12-24T12:21:39;12.60;;;10.23;;
40373;SDS011;26079;45.958;12.492;2022-12-24T12:24:11;13.60;;;10.77;;
40373;SDS011;26079;45.958;12.492;2022-12-24T12:29:59;12.40;;;10.27;;
40373;SDS011;26079;45.958;12.492;2022-12-24T12:35:35;14.27;;;11.15;;
40373;SDS011;26079;45.958;12.492;2022-12-24T12:38:05;11.57;;;9.65;;
40373;SDS011;26079;45.958;12.492;2022-12-24T12:57:14;15.23;;;12.25;;
40373;SDS011;26079;45.958;12.492;2022-12-24T12:59:45;15.00;;;11.93;;
40373;SDS011;26079;45.958;12.492;2022-12-24T13:22:02;18.15;;;14.02;;
40373;SDS011;26079;45.958;12.492;2022-12-24T13:24:28;15.38;;;12.40;;
40373;SDS011;26079;45.958;12.492;2022-12-24T13:27:03;17.17;;;14.20;;
40373;SDS011;26079;45.958;12.492;2022-12-24T13:32:53;16.58;;;12.63;;
40373;SDS011;26079;45.958;12.492;2022-12-24T13:37:43;19.60;;;14.93;;
40373;SDS011;26079;45.958;12.492;2022-12-24T13:43:20;16.67;;;13.18;;
40373;SDS011;26079;45.958;12.492;2022-12-24T13:47:55;18.50;;;13.52;;
40373;SDS011;26079;45.958;12.492;2022-12-24T13:50:36;16.13;;;13.65;;
40373;SDS011;26079;45.958;12.492;2022-12-24T13:53:26;15.55;;;13.13;;
40373;SDS011;26079;45.958;12.492;2022-12-24T13:56:08;15.43;;;13.15;;
40373;SDS011;26079;45.958;12.492;2022-12-24T13:58:46;16.85;;;12.48;;
40373;SDS011;26079;45.958;12.492;2022-12-24T14:01:19;16.65;;;13.35;;
40373;SDS011;26079;45.958;12.492;2022-12-24T14:04:06;16.80;;;11.82;;
40373;SDS011;26079;45.958;12.492;2022-12-24T14:06:35;16.40;;;11.32;;
40373;SDS011;26079;45.958;12.492;2022-12-24T14:14:50;21.20;;;14.10;;
40373;SDS011;26079;45.958;12.492;2022-12-24T14:19:49;21.75;;;15.07;;
40373;SDS011;26079;45.958;12.492;2022-12-24T14:22:30;19.77;;;15.60;;
40373;SDS011;26079;45.958;12.492;2022-12-24T14:27:42;20.70;;;16.50;;
40373;SDS011;26079;45.958;12.492;2022-12-24T14:32:42;30.83;;;22.17;;
40373;SDS011;26079;45.958;12.492;2022-12-24T14:37:47;23.85;;;17.70;;
40373;SDS011;26079;45.958;12.492;2022-12-24T14:40:16;22.90;;;19.50;;
40373;SDS011;26079;45.958;12.492;2022-12-24T14:48:01;22.35;;;16.00;;
40373;SDS011;26079;45.958;12.492;2022-12-24T14:55:54;18.63;;;15.40;;
40373;SDS011;26079;45.958;12.492;2022-12-24T14:58:24;24.88;;;18.13;;
40373;SDS011;26079;45.958;12.492;2022-12-24T15:01:19;21.00;;;16.10;;
40373;SDS011;26079;45.958;12.492;2022-12-24T15:06:53;26.80;;;18.23;;
40373;SDS011;26079;45.958;12.492;2022-12-24T15:09:22;21.70;;;17.73;;
40373;SDS011;26079;45.958;12.492;2022-12-24T15:11:55;32.85;;;22.27;;
40373;SDS011;26079;45.958;12.492;2022-12-24T15:14:24;25.40;;;17.35;;
40373;SDS011;26079;45.958;12.492;2022-12-24T15:16:54;23.77;;;18.58;;
40373;SDS011;26079;45.958;12.492;2022-12-24T15:19:38;26.80;;;18.90;;
40373;SDS011;26079;45.958;12.492;2022-12-24T15:22:10;24.20;;;19.25;;
40373;SDS011;26079;45.958;12.492;2022-12-24T15:24:49;25.13;;;18.63;;
40373;SDS011;26079;45.958;12.492;2022-12-24T15:27:17;23.63;;;20.92;;
40373;SDS011;26079;45.958;12.492;2022-12-24T15:29:46;37.85;;;30.30;;
40373;SDS011;26079;45.958;12.492;2022-12-24T15:32:13;33.25;;;24.80;;
40373;SDS011;26079;45.958;12.492;2022-12-24T15:34:44;28.60;;;24.08;;
40373;SDS011;26079;45.958;12.492;2022-12-24T15:37:22;25.25;;;20.17;;
40373;SDS011;26079;45.958;12.492;2022-12-24T15:39:57;49.65;;;34.85;;
40373;SDS011;26079;45.958;12.492;2022-12-24T15:42:41;78.93;;;49.00;;
40373;SDS011;26079;45.958;12.492;2022-12-24T15:48:27;41.90;;;29.27;;
40373;SDS011;26079;45.958;12.492;2022-12-24T15:50:35;38.65;;;26.85;;
40373;SDS011;26079;45.958;12.492;2022-12-24T15:53:10;30.10;;;22.20;;
40373;SDS011;26079;45.958;12.492;2022-12-24T15:55:45;23.77;;;20.10;;
40373;SDS011;26079;45.958;12.492;2022-12-24T15:58:24;25.38;;;20.83;;
40373;SDS011;26079;45.958;12.492;2022-12-24T16:01:02;27.38;;;20.30;;
40373;SDS011;26079;45.958;12.492;2022-12-24T16:03:30;27.92;;;20.02;;
40373;SDS011;26079;45.958;12.492;2022-12-24T16:06:03;33.33;;;21.17;;
40373;SDS011;26079;45.958;12.492;2022-12-24T16:08:36;26.80;;;21.98;;
40373;SDS011;26079;45.958;12.492;2022-12-24T16:16:47;36.65;;;23.67;;
40373;SDS011;26079;45.958;12.492;2022-12-24T16:19:17;32.45;;;25.92;;
40373;SDS011;26079;45.958;12.492;2022-12-24T16:21:43;35.83;;;27.60;;
40373;SDS011;26079;45.958;12.492;2022-12-24T16:24:14;45.28;;;35.15;;
40373;SDS011;26079;45.958;12.492;2022-12-24T16:26:45;38.10;;;31.20;;
40373;SDS011;26079;45.958;12.492;2022-12-24T16:29:12;44.78;;;33.60;;
40373;SDS011;26079;45.958;12.492;2022-12-24T16:31:46;48.15;;;36.83;;
40373;SDS011;26079;45.958;12.492;2022-12-24T16:34:15;61.67;;;44.85;;
40373;SDS011;26079;45.958;12.492;2022-12-24T16:36:42;44.38;;;35.83;;
40373;SDS011;26079;45.958;12.492;2022-12-24T16:39:11;61.95;;;45.55;;
40373;SDS011;26079;45.958;12.492;2022-12-24T16:41:48;53.17;;;42.25;;
40373;SDS011;26079;45.958;12.492;2022-12-24T16:44:36;55.88;;;39.47;;
40373;SDS011;26079;45.958;12.492;2022-12-24T16:47:03;42.63;;;35.90;;
40373;SDS011;26079;45.958;12.492;2022-12-24T16:49:36;47.65;;;34.45;;
40373;SDS011;26079;45.958;12.492;2022-12-24T16:52:05;34.53;;;28.38;;
40373;SDS011;26079;45.958;12.492;2022-12-24T16:54:36;41.38;;;32.05;;
40373;SDS011;26079;45.958;12.492;2022-12-24T16:57:02;29.63;;;21.02;;
40373;SDS011;26079;45.958;12.492;2022-12-24T16:59:27;34.22;;;25.70;;
40373;SDS011;26079;45.958;12.492;2022-12-24T17:01:53;31.00;;;21.20;;
40373;SDS011;26079;45.958;12.492;2022-12-24T17:04:19;26.88;;;19.10;;
40373;SDS011;26079;45.958;12.492;2022-12-24T17:06:44;34.55;;;24.17;;